Time;durP1;ratioP1;P1;durP2;ratioP2;P2;SDS_P1;SDS_P2;PMS_P1;PMS_P2;Temp;Humidity;BMP_temperature;BMP_pressure;BME280_temperature;BME280_humidity;BME280_pressure;Samples;Min_cycle;Max_cycle;Signal;HPM_P1;HPM_P2
2023/03/12 00:01:25;;;;;;;6.85;4.45;;;0.90;99.90;;;;;;4994338;28;92491;-75
2023/03/12 00:03:56;;;;;;;5.13;3.97;;;0.90;99.90;;;;;;4993551;28;95736;-75
2023/03/12 00:06:23;;;;;;;6.45;4.20;;;0.90;99.90;;;;;;4993912;28;97959;-75
2023/03/12 00:08:50;;;;;;;9.10;5.15;;;0.90;99.90;;;;;;4995761;28;92550;-75
2023/03/12 00:11:20;;;;;;;7.25;3.90;;;0.90;99.90;;;;;;4978016;28;92953;-75
2023/03/12 00:13:52;;;;;;;5.88;4.05;;;0.90;99.90;;;;;;4995583;28;93180;-75
2023/03/12 00:16:19;;;;;;;7.43;3.78;;;0.90;99.90;;;;;;4995334;28;93325;-75
2023/03/12 00:18:48;;;;;;;5.57;4.03;;;0.80;99.90;;;;;;4994245;28;94643;-75
2023/03/12 00:21:16;;;;;;;4.68;4.07;;;0.80;99.90;;;;;;4995780;28;91817;-75
2023/03/12 00:23:43;;;;;;;9.35;4.45;;;0.80;99.90;;;;;;4995392;28;92462;-76
2023/03/12 00:26:12;;;;;;;6.15;4.03;;;0.80;99.90;;;;;;4995341;28;93408;-76
2023/03/12 00:28:40;;;;;;;6.25;4.20;;;0.80;99.90;;;;;;4976754;28;94845;-75
2023/03/12 00:31:28;;;;;;;4.78;3.85;;;0.70;99.90;;;;;;4994212;28;92497;-75
2023/03/12 00:33:56;;;;;;;10.30;4.47;;;0.70;99.90;;;;;;4995497;28;93166;-75
2023/03/12 00:36:25;;;;;;;5.90;4.28;;;0.70;99.90;;;;;;4993447;28;95480;-75
2023/03/12 00:38:54;;;;;;;7.68;4.70;;;0.60;99.90;;;;;;4994219;28;92511;-75
2023/03/12 00:41:22;;;;;;;10.45;4.72;;;0.60;99.90;;;;;;4977397;28;92687;-75
2023/03/12 00:43:50;;;;;;;9.52;5.60;;;0.60;99.90;;;;;;4977414;28;95700;-75
2023/03/12 00:46:18;;;;;;;9.73;6.30;;;0.60;99.90;;;;;;4995383;28;93054;-75
2023/03/12 00:48:46;;;;;;;14.20;8.95;;;0.60;99.90;;;;;;4995235;28;92490;-75
2023/03/12 00:51:13;;;;;;;24.23;12.80;;;0.60;99.90;;;;;;4993577;28;92441;-75
2023/03/12 00:53:40;;;;;;;25.98;13.25;;;0.50;99.90;;;;;;4975502;28;98655;-75
2023/03/12 00:56:08;;;;;;;32.20;13.60;;;0.50;99.90;;;;;;4976823;28;97926;-75
2023/03/12 00:58:35;;;;;;;17.42;9.05;;;0.50;99.90;;;;;;4992166;28;92589;-75
2023/03/12 01:01:04;;;;;;;11.27;5.85;;;0.50;99.90;;;;;;4993178;28;92553;-75
2023/03/12 01:03:31;;;;;;;9.77;5.65;;;0.50;99.90;;;;;;4978672;28;95982;-75
2023/03/12 01:05:58;;;;;;;10.98;5.60;;;0.50;99.90;;;;;;4980871;28;93113;-75
2023/03/12 01:08:25;;;;;;;10.18;4.60;;;0.40;99.90;;;;;;4998448;28;92493;-75
2023/03/12 01:10:52;;;;;;;9.43;4.88;;;0.40;99.90;;;;;;4981074;28;91760;-75
2023/03/12 01:13:19;;;;;;;6.82;5.00;;;0.50;99.90;;;;;;4980495;28;95821;-75
2023/03/12 01:15:47;;;;;;;8.20;4.45;;;0.50;99.90;;;;;;4996783;28;95281;-75
2023/03/12 01:18:14;;;;;;;6.40;4.82;;;0.50;99.90;;;;;;4995897;28;95594;-75
2023/03/12 01:20:41;;;;;;;6.63;4.53;;;0.50;99.90;;;;;;4997042;28;92532;-75
2023/03/12 01:23:08;;;;;;;10.43;5.15;;;0.50;99.90;;;;;;4980212;28;98797;-75
2023/03/12 01:25:36;;;;;;;7.07;4.90;;;0.50;99.90;;;;;;4996641;28;95728;-75
2023/03/12 01:28:03;;;;;;;9.57;4.78;;;0.50;99.90;;;;;;4998351;28;92809;-75
2023/03/12 01:30:31;;;;;;;10.50;4.97;;;0.50;99.90;;;;;;4996534;28;92570;-75
2023/03/12 01:32:58;;;;;;;7.72;4.78;;;0.50;99.90;;;;;;4998116;28;93133;-76
2023/03/12 01:35:25;;;;;;;10.25;5.03;;;0.50;99.90;;;;;;4996726;28;96186;-76
2023/03/12 01:37:54;;;;;;;8.43;5.13;;;0.50;99.90;;;;;;4996671;28;92494;-75
2023/03/12 01:40:24;;;;;;;10.30;4.30;;;0.50;99.90;;;;;;4996554;28;92528;-75
2023/03/12 01:42:53;;;;;;;8.32;4.93;;;0.50;99.90;;;;;;4994500;28;98168;-75
2023/03/12 01:45:58;;;;;;;12.45;5.07;;;0.50;99.90;;;;;;4995924;28;105821;-75
2023/03/12 01:48:35;;;;;;;7.38;4.53;;;0.50;99.90;;;;;;4996471;28;92579;-75
2023/03/12 01:51:03;;;;;;;8.40;5.13;;;0.50;99.90;;;;;;4996323;28;92474;-75
2023/03/12 01:53:32;;;;;;;8.23;5.00;;;0.50;99.90;;;;;;4995859;28;95612;-75
2023/03/12 01:56:00;;;;;;;5.43;4.55;;;0.60;99.90;;;;;;4996186;28;95537;-76
2023/03/12 01:58:32;;;;;;;11.88;4.90;;;0.60;99.90;;;;;;4996122;28;93417;-76
2023/03/12 02:00:59;;;;;;;7.45;4.55;;;0.60;99.90;;;;;;4979584;28;91753;-75
2023/03/12 02:03:27;;;;;;;8.70;4.80;;;0.70;99.90;;;;;;4963293;28;95090;-75
2023/03/12 02:06:02;;;;;;;6.10;4.93;;;0.70;99.90;;;;;;4995807;28;95280;-76
2023/03/12 02:08:29;;;;;;;7.47;4.88;;;0.80;99.90;;;;;;4995269;28;95441;-75
2023/03/12 02:10:57;;;;;;;8.90;4.32;;;0.80;99.90;;;;;;4996499;28;92541;-76
2023/03/12 02:13:24;;;;;;;6.97;4.95;;;0.80;99.90;;;;;;4979288;28;96061;-76
2023/03/12 02:15:51;;;;;;;7.32;4.85;;;0.80;99.90;;;;;;4995183;28;94522;-76
2023/03/12 02:18:20;;;;;;;8.15;4.75;;;0.90;99.90;;;;;;4995895;28;92524;-75
2023/03/12 02:21:03;;;;;;;7.05;4.95;;;0.90;99.90;;;;;;4979903;28;92492;-76
2023/03/12 02:23:40;;;;;;;8.30;5.32;;;1.00;99.90;;;;;;4995575;28;96034;-75
2023/03/12 02:26:08;;;;;;;10.13;5.30;;;1.00;99.90;;;;;;4979659;28;95505;-75
2023/03/12 02:28:42;;;;;;;10.45;5.53;;;1.10;99.90;;;;;;4995710;28;92540;-75
2023/03/12 02:31:13;;;;;;;9.33;5.40;;;1.10;99.90;;;;;;4979579;28;92502;-76
2023/03/12 02:33:40;;;;;;;9.77;5.15;;;1.20;99.90;;;;;;4994350;28;98301;-76
2023/03/12 02:36:08;;;;;;;8.60;5.22;;;1.20;99.90;;;;;;4995734;28;94299;-75
2023/03/12 02:38:37;;;;;;;7.25;5.30;;;1.30;99.90;;;;;;4979134;28;92528;-75
2023/03/12 02:41:15;;;;;;;9.38;5.28;;;1.30;99.90;;;;;;4979153;28;92962;-75
2023/03/12 02:43:45;;;;;;;9.10;5.55;;;1.30;99.90;;;;;;4995200;28;96278;-75
2023/03/12 02:46:13;;;;;;;7.32;5.82;;;1.40;99.90;;;;;;4995657;28;95790;-75
2023/03/12 02:48:40;;;;;;;7.38;5.28;;;1.40;99.90;;;;;;4996634;28;93119;-76
2023/03/12 02:51:08;;;;;;;6.85;5.35;;;1.40;99.90;;;;;;4996265;28;92290;-75
2023/03/12 02:53:35;;;;;;;10.40;5.63;;;1.50;99.90;;;;;;4996347;28;93243;-75
2023/03/12 02:56:03;;;;;;;7.40;4.53;;;1.50;99.90;;;;;;4995356;28;95607;-75
2023/03/12 02:58:30;;;;;;;8.25;4.70;;;1.60;99.90;;;;;;4977639;28;94786;-75
2023/03/12 03:00:57;;;;;;;6.78;5.00;;;1.60;99.90;;;;;;4995000;28;92501;-75
2023/03/12 03:03:24;;;;;;;7.80;4.53;;;1.60;99.90;;;;;;4995097;28;95776;-75
2023/03/12 03:05:51;;;;;;;6.22;4.93;;;1.70;99.90;;;;;;4978641;28;95787;-75
2023/03/12 03:08:18;;;;;;;7.70;4.60;;;1.70;99.90;;;;;;4978501;28;92597;-75
2023/03/12 03:10:46;;;;;;;6.47;4.68;;;1.70;99.90;;;;;;4995142;28;92456;-75
2023/03/12 03:13:13;;;;;;;9.30;4.82;;;1.70;99.90;;;;;;4996821;28;93252;-75
2023/03/12 03:15:40;;;;;;;5.97;4.10;;;1.70;99.90;;;;;;4979005;28;95541;-75
2023/03/12 03:18:07;;;;;;;5.97;4.53;;;1.80;99.90;;;;;;4995382;28;92493;-75
2023/03/12 03:20:34;;;;;;;9.10;4.30;;;1.80;99.90;;;;;;4994855;28;92521;-76
2023/03/12 03:23:01;;;;;;;5.97;4.25;;;1.80;99.90;;;;;;4993784;28;94856;-75
2023/03/12 03:25:28;;;;;;;6.43;4.47;;;1.80;99.90;;;;;;4994849;28;97745;-76
2023/03/12 03:27:55;;;;;;;8.23;4.47;;;1.80;99.90;;;;;;4994974;28;92515;-75
2023/03/12 03:30:24;;;;;;;7.28;3.92;;;1.80;99.90;;;;;;4996619;28;92432;-75
2023/03/12 03:32:52;;;;;;;5.38;3.83;;;1.80;99.90;;;;;;4994678;28;95524;-75
2023/03/12 03:35:21;;;;;;;6.10;3.78;;;1.80;99.90;;;;;;4978348;28;94962;-75
2023/03/12 03:37:48;;;;;;;5.03;3.88;;;1.80;99.90;;;;;;4994824;28;92469;-75
2023/03/12 03:40:15;;;;;;;4.28;3.70;;;1.80;99.90;;;;;;4995268;28;91766;-75
2023/03/12 03:42:42;;;;;;;6.78;4.65;;;1.80;99.90;;;;;;4977777;28;95948;-75
2023/03/12 03:45:09;;;;;;;6.93;4.50;;;1.90;99.90;;;;;;4994590;28;95288;-75
2023/03/12 03:47:38;;;;;;;5.78;4.18;;;1.90;99.90;;;;;;4977184;28;94819;-75
2023/03/12 03:50:06;;;;;;;5.35;4.13;;;1.90;99.90;;;;;;4978410;28;92809;-75
2023/03/12 03:52:33;;;;;;;7.60;4.82;;;1.90;99.90;;;;;;4945772;28;95504;-75
2023/03/12 03:55:00;;;;;;;5.05;4.22;;;1.90;99.90;;;;;;4977745;28;95925;-75
2023/03/12 03:57:28;;;;;;;7.25;4.78;;;1.90;99.90;;;;;;4994697;28;92488;-75
2023/03/12 03:59:57;;;;;;;7.32;4.43;;;1.90;99.90;;;;;;4994302;28;92571;-75
2023/03/12 04:02:27;;;;;;;5.20;4.50;;;1.90;99.90;;;;;;4994022;28;95455;-75
2023/03/12 04:04:57;;;;;;;8.07;4.80;;;1.90;99.90;;;;;;4994459;28;95323;-75
2023/03/12 04:07:27;;;;;;;5.78;4.68;;;2.00;99.90;;;;;;4994571;28;92593;-75
2023/03/12 04:09:54;;;;;;;8.23;5.57;;;2.00;99.90;;;;;;4977753;28;92493;-75
2023/03/12 04:12:22;;;;;;;12.23;5.60;;;2.00;99.90;;;;;;4992984;28;98682;-75
2023/03/12 04:14:50;;;;;;;5.90;4.43;;;2.10;99.90;;;;;;4977441;28;98181;-75
2023/03/12 04:17:17;;;;;;;7.93;4.85;;;2.10;99.90;;;;;;4961640;28;92551;-75
2023/03/12 04:19:44;;;;;;;5.25;4.57;;;2.10;99.90;;;;;;4993631;28;92529;-75
2023/03/12 04:22:11;;;;;;;8.93;5.30;;;2.10;99.90;;;;;;4994083;28;95851;-75
2023/03/12 04:24:38;;;;;;;8.02;5.28;;;2.20;99.90;;;;;;4994114;28;95327;-75
2023/03/12 04:27:05;;;;;;;10.07;5.03;;;2.20;99.90;;;;;;4994350;28;92602;-75
2023/03/12 04:29:33;;;;;;;8.48;4.95;;;2.30;99.90;;;;;;4994243;28;91956;-75
2023/03/12 04:32:00;;;;;;;7.80;5.53;;;2.30;99.90;;;;;;4995428;28;93071;-75
2023/03/12 04:34:27;;;;;;;7.78;4.43;;;2.30;99.90;;;;;;4993907;28;95322;-75
2023/03/12 04:36:55;;;;;;;7.10;4.57;;;2.20;99.90;;;;;;4992709;28;95131;-75
2023/03/12 04:39:22;;;;;;;8.15;5.05;;;2.20;99.90;;;;;;4997156;28;92654;-75
2023/03/12 04:41:51;;;;;;;6.70;5.25;;;2.20;99.90;;;;;;4997227;28;95645;-75
2023/03/12 04:44:18;;;;;;;8.10;4.82;;;2.30;99.90;;;;;;4980773;28;95354;-75
2023/03/12 04:46:45;;;;;;;5.40;4.45;;;2.20;99.90;;;;;;4997375;28;92610;-75
2023/03/12 04:49:16;;;;;;;9.00;4.93;;;2.30;99.90;;;;;;4997929;28;92525;-75
2023/03/12 04:51:43;;;;;;;8.25;4.75;;;2.30;99.90;;;;;;4980722;28;95840;-75
2023/03/12 04:54:10;;;;;;;6.55;5.10;;;2.20;99.90;;;;;;4997553;28;95651;-75
2023/03/12 04:56:39;;;;;;;6.88;5.45;;;2.30;99.90;;;;;;4981305;28;93311;-75
2023/03/12 04:59:06;;;;;;;6.68;4.90;;;2.30;99.90;;;;;;4996742;28;92478;-75
2023/03/12 05:01:35;;;;;;;7.53;4.80;;;2.30;99.90;;;;;;4995598;28;98131;-75
2023/03/12 05:04:07;;;;;;;7.10;4.90;;;2.30;99.90;;;;;;4980979;28;97958;-75
2023/03/12 05:06:34;;;;;;;5.80;4.65;;;2.30;99.90;;;;;;4980909;28;92608;-75
2023/03/12 05:09:02;;;;;;;6.90;5.30;;;2.30;99.90;;;;;;4998468;28;92681;-75
2023/03/12 05:11:30;;;;;;;10.50;5.32;;;2.40;99.90;;;;;;4996926;28;95828;-75
2023/03/12 05:13:57;;;;;;;7.40;4.93;;;2.40;99.90;;;;;;4980231;28;95485;-75
2023/03/12 05:16:24;;;;;;;7.03;4.65;;;2.40;99.90;;;;;;4997257;28;92547;-75
2023/03/12 05:18:51;;;;;;;4.68;4.15;;;2.40;99.90;;;;;;4980750;28;91772;-75
2023/03/12 05:21:20;;;;;;;8.48;4.82;;;2.40;99.90;;;;;;4996932;28;95451;-75
2023/03/12 05:23:58;;;;;;;6.85;5.40;;;2.40;99.90;;;;;;4996696;28;94009;-75
2023/03/12 05:26:32;;;;;;;7.68;5.70;;;2.40;99.90;;;;;;4995744;28;94912;-75
2023/03/12 05:29:12;;;;;;;7.82;5.25;;;2.40;99.90;;;;;;4996721;28;92532;-75
2023/03/12 05:31:39;;;;;;;7.80;5.78;;;2.40;99.90;;;;;;4996704;28;95589;-75
2023/03/12 05:34:09;;;;;;;7.82;5.70;;;2.40;99.90;;;;;;4996563;28;95147;-75
2023/03/12 05:36:38;;;;;;;7.90;5.82;;;2.40;99.90;;;;;;4981114;28;92595;-75
2023/03/12 05:39:05;;;;;;;12.07;5.82;;;2.50;99.90;;;;;;4996641;28;92503;-75
2023/03/12 05:41:33;;;;;;;8.77;6.18;;;2.40;99.90;;;;;;4996550;28;95516;-75
2023/03/12 05:44:09;;;;;;;7.10;5.60;;;2.50;99.90;;;;;;4981076;28;95376;-75
2023/03/12 05:46:36;;;;;;;8.70;7.15;;;2.50;99.90;;;;;;4998344;28;92732;-75
2023/03/12 05:49:03;;;;;;;9.40;6.35;;;2.50;99.90;;;;;;4995469;28;92537;-75
2023/03/12 05:51:32;;;;;;;7.32;5.78;;;2.50;99.90;;;;;;4994978;28;97545;-74
2023/03/12 05:53:59;;;;;;;7.57;6.25;;;2.50;99.90;;;;;;4996113;28;97694;-75
2023/03/12 05:56:26;;;;;;;8.07;6.00;;;2.50;99.90;;;;;;4996610;28;93272;-74
2023/03/12 05:58:54;;;;;;;5.95;5.35;;;2.50;99.90;;;;;;4980205;28;92630;-75
2023/03/12 06:01:25;;;;;;;6.72;5.80;;;2.50;99.90;;;;;;4995971;28;95674;-75
2023/03/12 06:03:54;;;;;;;7.25;6.38;;;2.60;99.90;;;;;;4995922;28;95339;-75
2023/03/12 06:06:23;;;;;;;6.15;5.55;;;2.60;99.90;;;;;;4980118;28;92596;-75
2023/03/12 06:08:50;;;;;;;6.30;5.43;;;2.60;99.90;;;;;;4996577;28;91820;-75
2023/03/12 06:11:17;;;;;;;10.95;5.85;;;2.70;99.90;;;;;;4995830;28;95767;-75
2023/03/12 06:13:44;;;;;;;14.25;6.05;;;2.70;99.90;;;;;;4979591;28;95536;-74
2023/03/12 06:16:18;;;;;;;9.75;5.18;;;2.80;99.90;;;;;;4978061;28;94881;-75
2023/03/12 06:18:46;;;;;;;6.65;5.85;;;2.80;99.90;;;;;;4996193;28;92511;-74
2023/03/12 06:21:20;;;;;;;7.40;5.75;;;2.80;99.90;;;;;;4995663;28;95737;-75
2023/03/12 06:23:48;;;;;;;7.82;5.18;;;2.80;99.90;;;;;;4995855;28;95479;-75
2023/03/12 06:26:21;;;;;;;7.18;5.55;;;2.90;99.90;;;;;;4979909;28;92447;-75
2023/03/12 06:28:49;;;;;;;6.30;4.90;;;2.90;99.90;;;;;;4995569;28;92522;-75
2023/03/12 06:31:17;;;;;;;7.72;5.03;;;2.90;99.90;;;;;;4996784;28;93291;-75
2023/03/12 06:33:44;;;;;;;8.27;5.43;;;2.90;99.90;;;;;;4997422;28;91920;-75
2023/03/12 06:36:11;;;;;;;6.88;5.40;;;2.90;99.90;;;;;;4996792;28;92465;-75
2023/03/12 06:38:39;;;;;;;7.15;5.25;;;2.90;99.90;;;;;;4997194;28;92655;-75
2023/03/12 06:41:13;;;;;;;6.80;5.82;;;3.00;99.90;;;;;;4993696;28;98373;-75
2023/03/12 06:43:41;;;;;;;7.80;5.40;;;3.10;99.90;;;;;;4995430;28;97969;-75
2023/03/12 06:46:11;;;;;;;7.32;4.97;;;3.10;99.90;;;;;;4978911;28;92490;-75
2023/03/12 06:48:40;;;;;;;6.47;4.68;;;3.10;99.90;;;;;;4995339;28;92608;-75
2023/03/12 06:51:09;;;;;;;6.45;5.30;;;3.10;99.90;;;;;;4995211;28;95919;-75
2023/03/12 06:53:36;;;;;;;6.82;5.90;;;3.20;99.90;;;;;;4978581;28;95577;-75
2023/03/12 06:56:06;;;;;;;9.43;6.50;;;3.20;99.90;;;;;;4995580;28;92416;-75
2023/03/12 06:58:33;;;;;;;6.28;5.45;;;3.30;99.90;;;;;;4997313;28;92072;-75
2023/03/12 07:01:00;;;;;;;10.85;6.18;;;3.30;99.90;;;;;;4994109;28;93522;-75
2023/03/12 07:03:27;;;;;;;7.22;6.30;;;3.30;99.90;;;;;;4995212;28;95959;-75
2023/03/12 07:05:56;;;;;;;6.60;5.53;;;3.30;99.90;;;;;;4994382;28;95034;-75
2023/03/12 07:08:24;;;;;;;7.65;6.20;;;3.30;99.90;;;;;;4996399;28;93209;-75
2023/03/12 07:10:51;;;;;;;9.88;6.53;;;3.40;99.90;;;;;;4996488;28;93278;-75
2023/03/12 07:13:18;;;;;;;10.15;6.07;;;3.40;99.90;;;;;;4994816;28;95772;-75
2023/03/12 07:15:45;;;;;;;7.78;6.07;;;3.50;99.90;;;;;;4995596;28;92483;-75
2023/03/12 07:18:13;;;;;;;9.85;6.25;;;3.50;99.90;;;;;;4995215;28;92590;-75
2023/03/12 07:20:42;;;;;;;8.32;6.35;;;3.50;99.90;;;;;;4994830;28;96403;-75
2023/03/12 07:23:10;;;;;;;10.50;6.82;;;3.70;99.90;;;;;;4995170;28;95659;-75
2023/03/12 07:25:39;;;;;;;7.65;5.70;;;3.70;99.90;;;;;;4995623;28;93014;-75
2023/03/12 07:28:07;;;;;;;9.48;6.60;;;3.80;99.90;;;;;;4996201;28;92516;-76
2023/03/12 07:30:35;;;;;;;9.18;6.55;;;3.80;99.90;;;;;;4993591;28;96859;-76
2023/03/12 07:33:08;;;;;;;10.80;6.22;;;3.90;99.90;;;;;;4994330;28;105997;-75
2023/03/12 07:35:37;;;;;;;9.10;6.60;;;3.90;99.90;;;;;;4995261;28;93038;-76
2023/03/12 07:38:05;;;;;;;8.07;6.60;;;3.90;99.90;;;;;;4996352;28;93237;-75
2023/03/12 07:40:32;;;;;;;8.73;6.13;;;3.90;99.90;;;;;;4995939;28;93659;-76
2023/03/12 07:42:59;;;;;;;8.60;6.47;;;3.90;99.90;;;;;;4994698;28;95638;-76
2023/03/12 07:45:28;;;;;;;9.48;7.43;;;3.90;99.90;;;;;;4994600;28;93034;-75
2023/03/12 07:47:55;;;;;;;9.93;6.68;;;4.00;99.90;;;;;;4996579;28;91641;-75
2023/03/12 07:50:22;;;;;;;8.70;6.57;;;4.10;99.90;;;;;;4994604;28;93334;-76
2023/03/12 07:52:49;;;;;;;8.00;7.20;;;4.10;99.90;;;;;;4995738;28;92880;-75
2023/03/12 07:55:16;;;;;;;9.82;7.13;;;4.20;99.90;;;;;;4994707;28;95392;-75
2023/03/12 07:57:43;;;;;;;7.72;6.65;;;4.20;99.90;;;;;;4996175;28;92452;-75
2023/03/12 08:00:12;;;;;;;7.72;6.93;;;4.20;99.90;;;;;;4995417;28;93232;-75
2023/03/12 08:02:39;;;;;;;8.15;7.30;;;4.20;99.90;;;;;;4994072;28;93082;-75
2023/03/12 08:05:06;;;;;;;8.02;6.85;;;4.20;99.90;;;;;;4978284;28;92536;-75
2023/03/12 08:07:34;;;;;;;9.77;7.70;;;4.30;99.90;;;;;;4977979;28;92683;-75
2023/03/12 08:10:05;;;;;;;10.27;6.85;;;4.30;99.90;;;;;;4995400;28;93119;-75
2023/03/12 08:12:32;;;;;;;9.80;7.18;;;4.30;99.90;;;;;;4993448;28;95879;-75
2023/03/12 08:14:59;;;;;;;10.88;6.85;;;4.30;99.90;;;;;;4995620;28;92492;-75
2023/03/12 08:17:26;;;;;;;8.93;7.57;;;4.30;99.90;;;;;;4994346;28;92483;-75
2023/03/12 08:19:53;;;;;;;10.13;7.82;;;4.20;99.90;;;;;;4993120;28;96057;-75
2023/03/12 08:22:20;;;;;;;10.18;6.40;;;4.20;99.90;;;;;;4994021;28;95469;-75
2023/03/12 08:24:47;;;;;;;9.90;6.68;;;4.20;99.90;;;;;;4977911;28;92527;-75
2023/03/12 08:27:14;;;;;;;7.43;6.72;;;4.10;99.90;;;;;;4995635;28;92455;-75
2023/03/12 08:29:41;;;;;;;12.48;10.52;;;4.10;99.90;;;;;;4995649;28;93814;-75
2023/03/12 08:32:12;;;;;;;8.85;7.95;;;4.10;99.90;;;;;;4994904;28;92505;-75
2023/03/12 08:34:39;;;;;;;10.20;7.60;;;4.00;99.90;;;;;;4995569;28;92496;-75
2023/03/12 08:37:07;;;;;;;11.10;7.82;;;4.00;99.90;;;;;;4994720;28;91736;-75
2023/03/12 08:39:34;;;;;;;11.43;9.68;;;4.10;99.90;;;;;;4977050;28;103986;-75
2023/03/12 08:42:02;;;;;;;9.15;7.30;;;4.20;99.90;;;;;;4993905;28;93175;-75
2023/03/12 08:44:29;;;;;;;9.75;7.60;;;4.20;99.90;;;;;;4993990;28;94948;-75
2023/03/12 08:46:56;;;;;;;9.02;8.07;;;4.20;99.90;;;;;;4994323;28;93190;-75
2023/03/12 08:49:23;;;;;;;9.80;7.80;;;4.20;99.90;;;;;;4993778;28;95768;-75
2023/03/12 08:51:50;;;;;;;8.98;8.02;;;4.30;99.90;;;;;;4993968;28;93054;-75
2023/03/12 08:54:19;;;;;;;11.45;7.90;;;4.30;99.90;;;;;;4995106;28;92456;-75
2023/03/12 08:56:51;;;;;;;9.43;7.18;;;4.30;99.90;;;;;;4994976;28;92388;-75
2023/03/12 08:59:22;;;;;;;9.65;7.15;;;4.30;99.90;;;;;;4993265;28;93270;-75
2023/03/12 09:01:49;;;;;;;10.98;7.60;;;4.20;99.90;;;;;;4994427;28;92705;-75
2023/03/12 09:04:16;;;;;;;11.07;8.90;;;4.20;99.90;;;;;;4960908;28;92572;-75
2023/03/12 09:06:43;;;;;;;9.23;6.90;;;4.10;99.90;;;;;;4977047;28;92667;-75
2023/03/12 09:09:10;;;;;;;7.15;6.47;;;4.10;99.90;;;;;;4992410;28;95657;-75
2023/03/12 09:11:41;;;;;;;8.95;7.07;;;4.20;99.90;;;;;;4993353;28;95540;-75
2023/03/12 09:14:08;;;;;;;71.40;40.67;;;4.10;99.90;;;;;;4995239;28;92503;-75
2023/03/12 09:16:56;;;;;;;21.85;20.08;;;4.20;99.90;;;;;;4994419;28;92440;-77
2023/03/12 09:19:23;;;;;;;23.67;21.55;;;4.20;99.90;;;;;;4959629;28;95954;-75
2023/03/12 09:21:50;;;;;;;27.90;25.58;;;4.20;99.90;;;;;;4976235;28;105383;-75
2023/03/12 09:24:17;;;;;;;24.30;22.05;;;4.20;99.90;;;;;;4994135;28;92547;-75
2023/03/12 09:26:44;;;;;;;15.07;12.77;;;4.20;99.90;;;;;;4998161;28;91941;-75
2023/03/12 09:29:11;;;;;;;12.77;11.48;;;4.10;99.90;;;;;;4997375;28;93398;-75
2023/03/12 09:31:38;;;;;;;11.90;8.98;;;4.10;99.90;;;;;;4997249;28;93317;-75
2023/03/12 09:34:05;;;;;;;21.63;16.17;;;4.20;99.90;;;;;;4996777;28;95197;-75
2023/03/12 09:36:32;;;;;;;9.43;7.95;;;4.20;99.90;;;;;;4995928;28;92754;-75
2023/03/12 09:39:00;;;;;;;10.85;9.40;;;4.30;99.90;;;;;;4997985;28;93349;-75
2023/03/12 09:41:30;;;;;;;8.27;7.25;;;4.20;99.90;;;;;;4995989;28;104072;-75
2023/03/12 09:44:27;;;;;;;14.68;11.98;;;4.10;99.90;;;;;;4996922;28;92523;-75
2023/03/12 09:46:57;;;;;;;13.07;8.40;;;4.10;99.90;;;;;;4996313;28;92502;-75
2023/03/12 09:49:45;;;;;;;32.63;29.75;;;4.00;99.90;;;;;;4996564;28;93076;-75
2023/03/12 09:52:44;;;;;;;10.18;9.10;;;3.90;99.90;;;;;;4996247;28;95889;-75
2023/03/12 09:55:15;;;;;;;33.08;28.88;;;3.90;99.90;;;;;;4997846;28;92429;-75
2023/03/12 09:57:43;;;;;;;17.88;16.00;;;4.00;99.90;;;;;;4995609;28;92543;-75
2023/03/12 10:00:13;;;;;;;20.38;17.95;;;3.90;99.90;;;;;;4994580;28;95668;-75
2023/03/12 10:02:46;;;;;;;13.43;10.98;;;4.00;99.90;;;;;;4994784;28;98171;-75
2023/03/12 10:05:25;;;;;;;13.23;11.97;;;4.00;99.90;;;;;;4995587;28;92608;-75
2023/03/12 10:08:01;;;;;;;11.27;10.15;;;4.00;99.90;;;;;;4995817;28;92744;-75
2023/03/12 10:10:52;;;;;;;10.48;9.20;;;4.10;99.90;;;;;;4995443;28;95680;-75
2023/03/12 10:13:51;;;;;;;10.82;9.75;;;4.10;99.90;;;;;;4997676;28;92827;-75
2023/03/12 10:16:53;;;;;;;10.45;9.43;;;4.10;99.90;;;;;;4989409;28;92576;-75
2023/03/12 10:19:48;;;;;;;15.50;12.35;;;4.10;99.90;;;;;;4977093;28;91944;-74
2023/03/12 10:22:45;;;;;;;13.80;12.43;;;4.10;99.90;;;;;;4995430;28;95736;-75
2023/03/12 10:25:21;;;;;;;12.45;11.07;;;4.10;99.90;;;;;;4995183;28;96920;-75
2023/03/12 10:27:49;;;;;;;11.88;10.63;;;4.10;99.90;;;;;;4995871;28;95567;-75
2023/03/12 10:30:20;;;;;;;16.27;14.68;;;4.20;99.90;;;;;;4996774;28;92492;-75
2023/03/12 10:32:56;;;;;;;13.80;12.13;;;4.20;99.90;;;;;;4996693;28;93283;-75
2023/03/12 10:35:26;;;;;;;17.33;15.77;;;4.30;99.90;;;;;;4994663;28;92838;-75
2023/03/12 10:38:01;;;;;;;11.88;10.68;;;4.20;99.90;;;;;;4997015;28;92380;-75
2023/03/12 10:40:34;;;;;;;10.23;9.27;;;4.30;99.90;;;;;;4995764;28;93372;-75
2023/03/12 10:43:03;;;;;;;13.10;11.23;;;4.30;99.90;;;;;;4997133;28;92416;-75
2023/03/12 10:46:00;;;;;;;12.75;11.48;;;4.30;99.90;;;;;;4995313;28;93117;-75
2023/03/12 10:48:27;;;;;;;11.95;10.55;;;4.40;99.90;;;;;;4995598;28;92545;-75
2023/03/12 10:51:09;;;;;;;13.55;12.00;;;4.30;99.90;;;;;;4996328;28;92467;-75
2023/03/12 10:53:48;;;;;;;12.07;10.75;;;4.40;99.90;;;;;;4995058;28;95563;-75
2023/03/12 10:56:17;;;;;;;12.95;11.55;;;4.40;99.90;;;;;;4979561;28;101886;-75
2023/03/12 10:58:48;;;;;;;15.23;12.07;;;4.50;99.90;;;;;;4994753;28;92463;-75
2023/03/12 11:01:25;;;;;;;10.50;9.40;;;4.60;99.90;;;;;;4994900;28;92523;-75
2023/03/12 11:04:06;;;;;;;12.05;10.60;;;4.70;99.90;;;;;;4996336;28;93247;-75
2023/03/12 11:06:33;;;;;;;13.00;11.70;;;4.70;99.90;;;;;;4996010;28;92975;-75
2023/03/12 11:09:04;;;;;;;13.07;11.02;;;4.80;99.90;;;;;;4996291;28;92917;-75
2023/03/12 11:11:44;;;;;;;10.65;9.65;;;4.80;99.90;;;;;;4994989;28;91684;-75
2023/03/12 11:14:24;;;;;;;11.35;9.82;;;4.80;99.90;;;;;;4996251;28;93177;-75
2023/03/12 11:16:52;;;;;;;13.15;9.98;;;4.90;99.90;;;;;;4995439;28;92489;-75
2023/03/12 11:19:32;;;;;;;12.43;11.13;;;4.90;99.90;;;;;;4993628;28;94927;-75
2023/03/12 11:22:06;;;;;;;12.52;10.52;;;5.00;99.90;;;;;;4996314;28;92495;-75
2023/03/12 11:24:34;;;;;;;11.30;10.20;;;5.00;99.90;;;;;;4994240;28;94933;-75
2023/03/12 11:27:37;;;;;;;11.18;10.18;;;5.00;99.90;;;;;;4994056;28;104861;-75
2023/03/12 11:30:10;;;;;;;12.25;11.05;;;5.10;99.90;;;;;;4983337;28;92522;-75
2023/03/12 11:32:42;;;;;;;14.38;12.82;;;5.20;99.90;;;;;;4994198;28;92439;-75
2023/03/12 11:35:14;;;;;;;15.95;14.45;;;5.20;99.90;;;;;;4995591;28;93462;-75
2023/03/12 11:38:02;;;;;;;19.58;17.67;;;5.30;99.90;;;;;;4994467;28;95525;-75
2023/03/12 11:40:57;;;;;;;31.00;28.00;;;5.40;99.90;;;;;;4994382;28;92503;-75
2023/03/12 11:43:52;;;;;;;12.15;10.95;;;5.50;99.90;;;;;;4977545;28;92565;-75
2023/03/12 11:46:43;;;;;;;14.48;13.05;;;5.50;99.90;;;;;;4994229;28;95708;-75
2023/03/12 11:49:45;;;;;;;14.07;11.23;;;5.50;99.90;;;;;;4993924;28;96399;-75
2023/03/12 11:52:36;;;;;;;11.85;10.73;;;5.60;99.90;;;;;;4995745;28;92528;-75
2023/03/12 11:55:20;;;;;;;12.25;10.43;;;5.70;99.90;;;;;;4993971;28;93464;-75
2023/03/12 11:58:08;;;;;;;12.52;11.23;;;5.80;99.90;;;;;;4993615;28;95102;-75
2023/03/12 12:01:09;;;;;;;14.38;12.20;;;5.80;99.90;;;;;;4977685;28;95746;-75
2023/03/12 12:03:46;;;;;;;13.75;12.45;;;6.00;99.90;;;;;;4992847;28;94259;-75
2023/03/12 12:06:24;;;;;;;12.70;11.18;;;6.10;99.90;;;;;;4994433;28;91965;-75
2023/03/12 12:09:00;;;;;;;15.00;13.60;;;6.30;99.90;;;;;;4993429;28;95800;-75
2023/03/12 12:11:44;;;;;;;14.65;11.15;;;6.40;99.90;;;;;;4993716;28;95650;-75
2023/03/12 12:14:35;;;;;;;13.57;11.77;;;6.40;99.90;;;;;;4994664;28;95357;-75
2023/03/12 12:17:26;;;;;;;12.40;11.10;;;6.50;99.90;;;;;;4993515;28;92539;-75
2023/03/12 12:20:16;;;;;;;14.10;11.70;;;6.70;99.90;;;;;;4994726;28;93377;-75
2023/03/12 12:22:50;;;;;;;14.02;12.25;;;6.80;99.90;;;;;;4995022;28;93443;-75
2023/03/12 12:25:27;;;;;;;15.33;11.60;;;6.70;99.90;;;;;;4994744;28;93238;-75
2023/03/12 12:28:10;;;;;;;12.88;11.55;;;6.80;99.90;;;;;;4993350;28;92485;-75
2023/03/12 12:31:25;;;;;;;14.40;12.77;;;6.80;99.90;;;;;;4995121;28;93300;-75
2023/03/12 12:34:00;;;;;;;13.73;10.95;;;6.80;99.90;;;;;;4992710;28;93294;-75
2023/03/12 12:36:31;;;;;;;10.98;9.70;;;6.80;99.90;;;;;;4995072;28;92504;-75
2023/03/12 12:39:08;;;;;;;39.35;27.67;;;6.80;99.90;;;;;;4995636;28;92990;-75
2023/03/12 12:41:39;;;;;;;14.43;11.65;;;6.80;99.90;;;;;;4992163;28;95721;-75
2023/03/12 12:44:16;;;;;;;13.23;10.82;;;6.90;99.90;;;;;;4992758;28;98388;-75
2023/03/12 12:46:49;;;;;;;11.05;9.95;;;7.10;99.90;;;;;;4977009;28;92556;-75
2023/03/12 12:49:23;;;;;;;13.70;10.13;;;7.20;99.90;;;;;;4995640;28;92479;-75
2023/03/12 12:51:55;;;;;;;12.13;10.95;;;7.30;99.90;;;;;;4994496;28;93614;-75
2023/03/12 12:54:45;;;;;;;11.82;10.10;;;7.40;99.90;;;;;;4993438;28;93033;-75
2023/03/12 12:57:30;;;;;;;13.38;10.65;;;7.50;99.90;;;;;;4977311;28;92517;-75
2023/03/12 13:00:16;;;;;;;11.25;10.15;;;7.60;99.90;;;;;;4981204;28;91623;-75
2023/03/12 13:02:46;;;;;;;11.48;10.25;;;7.70;99.90;;;;;;4976228;28;93351;-75
2023/03/12 13:05:19;;;;;;;10.57;9.52;;;7.70;99.90;;;;;;4976587;28;94316;-75
2023/03/12 13:07:46;;;;;;;12.13;10.70;;;7.70;99.90;;;;;;4977736;28;94864;-75
2023/03/12 13:10:32;;;;;;;11.35;10.25;;;7.80;99.90;;;;;;4976566;28;92642;-75
2023/03/12 13:13:19;;;;;;;16.42;10.57;;;7.90;99.90;;;;;;4977835;28;93256;-75